Time;durP1;ratioP1;P1;durP2;ratioP2;P2;SDS_P1;SDS_P2;PMS_P1;PMS_P2;Temp;Humidity;BMP_temperature;BMP_pressure;BME280_temperature;BME280_humidity;BME280_pressure;Samples;Min_cycle;Max_cycle;Signal;HPM_P1;HPM_P2
2022/02/10 00:04:45;;;;;;;10.63;6.23;;;11.90;99.90;;;;;;5088255;28;20474;-40
2022/02/10 00:18:27;;;;;;;10.60;6.73;;;11.00;99.90;;;;;;5076198;28;20422;-41
2022/02/10 00:21:11;;;;;;;9.30;6.83;;;11.10;99.90;;;;;;5088189;28;20434;-40
2022/02/10 00:24:23;;;;;;;8.77;6.60;;;11.00;99.90;;;;;;5079972;28;20446;-41
2022/02/10 00:34:55;;;;;;;10.23;7.40;;;10.40;99.90;;;;;;5088020;28;20470;-41
2022/02/10 00:37:25;;;;;;;10.93;7.00;;;10.40;99.90;;;;;;5078306;28;20573;-46
2022/02/10 00:42:22;;;;;;;8.40;7.03;;;10.40;99.90;;;;;;5088296;28;20418;-40
2022/02/10 00:44:48;;;;;;;9.23;6.87;;;10.60;99.90;;;;;;5087832;28;20423;-41
2022/02/10 00:47:14;;;;;;;13.17;7.00;;;10.50;99.90;;;;;;5087676;28;20246;-41
2022/02/10 00:49:40;;;;;;;9.50;6.77;;;10.50;99.90;;;;;;5086010;28;20204;-41
2022/02/10 00:52:07;;;;;;;7.30;6.60;;;10.50;99.90;;;;;;5081511;28;20441;-42
2022/02/10 00:54:36;;;;;;;10.47;6.80;;;10.40;99.90;;;;;;5083075;28;20527;-41
2022/02/10 00:57:06;;;;;;;11.07;8.37;;;10.30;99.90;;;;;;5087630;28;20910;-40
2022/02/10 01:02:37;;;;;;;8.00;7.20;;;10.20;99.90;;;;;;5087677;28;20432;-40
2022/02/10 01:29:45;;;;;;;16.20;11.87;;;9.20;99.90;;;;;;5088217;28;20826;-40
2022/02/10 01:32:12;;;;;;;12.73;10.90;;;9.00;99.90;;;;;;5087574;28;21027;-43
2022/02/10 01:34:46;;;;;;;12.63;8.97;;;8.90;99.90;;;;;;5087716;28;20466;-40
2022/02/10 01:37:12;;;;;;;13.27;9.80;;;9.00;99.90;;;;;;5085034;28;20803;-39
2022/02/10 01:39:44;;;;;;;13.90;8.97;;;9.30;99.90;;;;;;5088799;28;20418;-44
2022/02/10 02:03:35;;;;;;;11.80;9.07;;;9.70;99.90;;;;;;5090845;28;20789;-39
2022/02/10 02:06:06;;;;;;;13.23;9.30;;;9.70;99.90;;;;;;5090147;28;20437;-43
2022/02/10 02:08:35;;;;;;;13.43;8.87;;;9.70;99.90;;;;;;5081272;28;20478;-43
2022/02/10 02:11:02;;;;;;;10.17;8.07;;;9.40;99.90;;;;;;5090465;28;20422;-46
2022/02/10 02:13:28;;;;;;;10.63;8.90;;;9.10;99.90;;;;;;5090540;28;20434;-39
2022/02/10 02:15:54;;;;;;;13.20;9.90;;;9.00;99.90;;;;;;5089925;28;20497;-43
2022/02/10 02:18:21;;;;;;;11.37;8.43;;;9.20;99.90;;;;;;5090766;28;20184;-43
2022/02/10 02:20:49;;;;;;;16.73;9.70;;;9.10;99.90;;;;;;5090229;28;20508;-41
2022/02/10 02:23:17;;;;;;;14.83;10.60;;;9.00;99.90;;;;;;5080033;28;20443;-42
2022/02/10 02:25:43;;;;;;;16.90;9.77;;;9.10;99.90;;;;;;5089940;28;20438;-39
2022/02/10 02:28:11;;;;;;;16.50;10.17;;;9.20;99.90;;;;;;5090541;28;20430;-41
2022/02/10 02:30:49;;;;;;;12.47;10.57;;;9.40;99.90;;;;;;5088526;28;20942;-42
2022/02/10 02:33:28;;;;;;;13.37;10.20;;;9.50;99.90;;;;;;5090518;28;20487;-39
2022/02/10 03:08:22;;;;;;;14.23;9.07;;;9.10;99.90;;;;;;5081969;28;20630;-40
2022/02/10 03:13:20;;;;;;;11.17;9.70;;;9.00;99.90;;;;;;5089896;28;20518;-40
2022/02/10 03:16:19;;;;;;;13.40;9.47;;;9.30;99.90;;;;;;5088817;28;20458;-40
2022/02/10 03:18:55;;;;;;;11.67;9.83;;;9.20;99.90;;;;;;5089483;28;20488;-39
2022/02/10 04:16:12;;;;;;;11.53;7.53;;;8.40;99.90;;;;;;5087692;28;20503;-42
2022/02/10 04:30:14;;;;;;;11.40;8.87;;;8.10;99.90;;;;;;5032367;28;20456;-39
2022/02/10 04:57:52;;;;;;;12.37;10.97;;;8.20;99.90;;;;;;5070160;28;20453;-39
2022/02/10 05:00:14;;;;;;;11.63;9.10;;;8.30;99.90;;;;;;5071054;28;20431;-43
2022/02/10 05:19:09;;;;;;;12.90;10.67;;;8.00;99.90;;;;;;5087183;28;20795;-41
2022/02/10 05:32:17;;;;;;;11.67;10.10;;;8.20;99.90;;;;;;5086765;28;20480;-42
2022/02/10 05:34:50;;;;;;;13.03;10.30;;;7.90;99.90;;;;;;5086747;28;20458;-41
2022/02/10 05:37:18;;;;;;;16.40;11.27;;;8.00;99.90;;;;;;5087678;28;20418;-42
2022/02/10 05:39:47;;;;;;;18.67;10.70;;;8.10;99.90;;;;;;5077218;28;20431;-40
2022/02/10 05:57:43;;;;;;;10.90;9.17;;;8.20;99.90;;;;;;5082467;28;20441;-44
2022/02/10 06:01:25;;;;;;;12.00;9.70;;;8.10;99.90;;;;;;5085703;28;20484;-40
2022/02/10 06:49:46;;;;;;;10.20;7.60;;;8.50;99.90;;;;;;5089877;28;20503;-40
2022/02/10 06:52:28;;;;;;;10.10;7.30;;;8.50;99.90;;;;;;5090058;28;20487;-40
2022/02/10 06:55:09;;;;;;;12.40;7.53;;;8.40;99.90;;;;;;5082295;28;20516;-40
2022/02/10 07:06:15;;;;;;;12.10;7.73;;;8.40;99.90;;;;;;5089712;28;20419;-39
2022/02/10 07:15:28;;;;;;;10.40;8.17;;;8.30;99.90;;;;;;5089637;28;20431;-41
2022/02/10 07:50:57;;;;;;;9.47;7.73;;;7.90;99.90;;;;;;5087968;28;20442;-41
2022/02/10 09:02:40;;;;;;;14.73;11.03;;;7.90;99.90;;;;;;5087981;28;20426;-40
2022/02/10 09:05:21;;;;;;;14.87;10.80;;;8.00;99.90;;;;;;5087523;28;20677;-40
2022/02/10 09:21:41;;;;;;;14.90;10.67;;;8.10;99.90;;;;;;5087195;28;20414;-41
2022/02/10 10:02:26;;;;;;;13.50;11.50;;;7.90;99.90;;;;;;5090639;28;20236;-41
2022/02/10 10:05:25;;;;;;;14.67;11.67;;;8.00;99.90;;;;;;5090788;28;20484;-42
2022/02/10 10:10:48;;;;;;;15.60;11.70;;;7.90;99.90;;;;;;5088484;28;20422;-40
2022/02/10 10:13:37;;;;;;;15.00;12.27;;;8.20;99.90;;;;;;5081339;28;20480;-45
2022/02/10 10:21:37;;;;;;;15.00;12.93;;;8.30;99.90;;;;;;5090268;28;20948;-39
2022/02/10 11:42:04;;;;;;;14.63;13.13;;;8.00;99.90;;;;;;5083477;28;20434;-41
2022/02/10 13:49:43;;;;;;;9.00;6.63;;;8.40;99.90;;;;;;5087072;28;20912;-39
2022/02/10 14:25:50;;;;;;;10.53;8.43;;;8.50;99.90;;;;;;5087163;28;20762;-40
2022/02/10 14:28:17;;;;;;;10.23;8.30;;;8.50;99.90;;;;;;5077685;28;20439;-40
2022/02/10 14:30:43;;;;;;;9.33;7.97;;;8.50;99.90;;;;;;5079651;28;20772;-41
2022/02/10 14:33:10;;;;;;;8.87;7.80;;;8.50;99.90;;;;;;5086977;28;20541;-39
2022/02/10 14:35:56;;;;;;;10.70;7.87;;;8.40;99.90;;;;;;5086920;28;20458;-40
2022/02/10 15:46:48;;;;;;;11.77;8.80;;;8.30;99.90;;;;;;5083432;28;20465;-39
2022/02/10 15:56:58;;;;;;;10.60;8.93;;;8.30;99.90;;;;;;5088229;28;20956;-38
2022/02/10 16:16:37;;;;;;;9.90;8.30;;;8.20;99.90;;;;;;5081069;28;20469;-40
2022/02/10 16:18:44;;;;;;;12.03;8.10;;;8.00;99.90;;;;;;5087643;28;20487;-38
2022/02/10 16:21:11;;;;;;;16.70;10.30;;;8.10;99.90;;;;;;5086070;28;20426;-39
2022/02/10 16:23:37;;;;;;;11.63;8.23;;;7.90;99.90;;;;;;5085700;28;20986;-38
2022/02/10 16:28:40;;;;;;;12.70;9.23;;;8.00;99.90;;;;;;5083132;28;20184;-38
2022/02/10 16:31:06;;;;;;;11.40;8.40;;;8.20;99.90;;;;;;5084103;28;20423;-38
2022/02/10 16:33:33;;;;;;;11.40;9.10;;;8.00;99.90;;;;;;5086902;28;20426;-43
2022/02/10 16:36:00;;;;;;;10.23;8.40;;;7.90;99.90;;;;;;5087731;28;20477;-40
2022/02/10 16:38:27;;;;;;;13.80;8.53;;;7.90;99.90;;;;;;5087140;28;20427;-38
2022/02/10 16:40:55;;;;;;;12.30;8.97;;;8.00;99.90;;;;;;5086846;28;20491;-39
2022/02/10 16:43:21;;;;;;;12.77;9.70;;;7.90;99.90;;;;;;5085328;28;20475;-41
2022/02/10 16:45:47;;;;;;;14.17;9.00;;;7.80;99.90;;;;;;5079093;28;20611;-41
2022/02/10 16:48:13;;;;;;;11.73;9.40;;;7.80;99.90;;;;;;5087537;28;20427;-41
2022/02/10 16:50:43;;;;;;;15.60;8.57;;;7.90;99.90;;;;;;5087638;28;20291;-39
2022/02/10 16:53:12;;;;;;;11.40;8.30;;;8.10;99.90;;;;;;5066913;28;20658;-39
2022/02/10 16:55:49;;;;;;;10.97;8.63;;;8.10;99.90;;;;;;5078891;28;20971;-40
2022/02/10 17:17:32;;;;;;;11.43;8.30;;;9.50;99.90;;;;;;5087169;28;20427;-39
2022/02/10 17:27:36;;;;;;;12.80;10.70;;;10.80;99.90;;;;;;5086301;28;20184;-40
2022/02/10 17:35:46;;;;;;;10.17;9.13;;;12.20;99.90;;;;;;5085534;28;20462;-40
2022/02/10 17:46:16;;;;;;;10.70;9.30;;;14.30;99.90;;;;;;5087488;28;20445;-43
2022/02/10 17:54:13;;;;;;;11.70;10.00;;;15.00;99.90;;;;;;5045665;28;20646;-46
2022/02/10 17:56:40;;;;;;;10.50;9.23;;;15.30;99.90;;;;;;5074177;28;20493;-40
2022/02/10 17:59:07;;;;;;;9.77;8.47;;;15.60;99.90;;;;;;5084558;28;20446;-40
2022/02/10 18:01:33;;;;;;;7.70;7.00;;;15.60;99.90;;;;;;5085734;28;20431;-40
2022/02/10 18:03:59;;;;;;;8.10;6.67;;;15.80;99.90;;;;;;5087661;28;20526;-40
2022/02/10 18:06:28;;;;;;;7.90;5.97;;;15.60;99.90;;;;;;5087760;28;20663;-42
2022/02/10 18:14:09;;;;;;;4.17;3.00;;;15.50;99.90;;;;;;5083775;28;20434;-40
2022/02/10 18:19:45;;;;;;;2.60;1.90;;;14.60;99.70;;;;;;5046876;28;20459;-40
2022/02/10 18:27:42;;;;;;;3.33;1.87;;;14.10;99.90;;;;;;5091125;28;20849;-40
2022/02/10 18:30:19;;;;;;;2.53;1.70;;;14.10;99.90;;;;;;5085118;28;20899;-41
2022/02/10 19:07:50;;;;;;;3.30;3.00;;;12.10;99.90;;;;;;5090744;28;20415;-39
2022/02/10 19:10:23;;;;;;;3.43;3.13;;;11.90;99.90;;;;;;5089771;28;20426;-41
2022/02/10 19:12:56;;;;;;;3.90;3.17;;;12.00;99.90;;;;;;5090207;28;21014;-42
2022/02/10 19:15:33;;;;;;;5.40;4.50;;;11.70;99.90;;;;;;5080697;28;20463;-45
2022/02/10 19:18:06;;;;;;;5.17;4.50;;;11.20;99.90;;;;;;5090084;28;20438;-42
2022/02/10 19:20:33;;;;;;;7.43;5.63;;;11.30;99.90;;;;;;5087880;28;20468;-39
2022/02/10 19:23:00;;;;;;;4.27;3.10;;;11.00;99.90;;;;;;5089469;28;20418;-41
2022/02/10 19:25:26;;;;;;;5.50;3.17;;;10.70;99.90;;;;;;5089934;28;20423;-42
2022/02/10 19:27:52;;;;;;;5.73;3.70;;;10.70;99.90;;;;;;5090077;28;20830;-40
2022/02/10 19:30:20;;;;;;;5.47;4.00;;;10.90;99.90;;;;;;5080345;28;20693;-39
2022/02/10 19:32:51;;;;;;;3.43;3.13;;;11.40;99.90;;;;;;5088829;28;20234;-45
2022/02/10 19:35:20;;;;;;;4.03;2.57;;;11.30;99.90;;;;;;5080660;28;20459;-39
2022/02/10 19:37:47;;;;;;;6.83;3.37;;;11.60;99.90;;;;;;5087747;28;20430;-39
2022/02/10 19:40:13;;;;;;;4.03;3.63;;;11.50;99.90;;;;;;5088737;28;20448;-38
2022/02/10 19:42:41;;;;;;;5.23;3.50;;;11.50;99.90;;;;;;5088814;28;20680;-41
2022/02/10 19:45:08;;;;;;;5.43;2.77;;;11.40;99.90;;;;;;5086042;28;20191;-39
2022/02/10 19:47:37;;;;;;;1.90;1.50;;;11.40;99.90;;;;;;5088739;28;20696;-39
2022/02/10 19:50:10;;;;;;;2.40;1.80;;;11.30;99.90;;;;;;5086979;28;20474;-40
2022/02/10 19:52:40;;;;;;;3.10;2.00;;;11.30;99.90;;;;;;5083476;28;20993;-41
2022/02/10 19:55:09;;;;;;;2.10;1.90;;;11.00;99.90;;;;;;5078543;28;20519;-39
2022/02/10 19:57:37;;;;;;;3.30;1.97;;;10.90;99.90;;;;;;5080997;28;20470;-38
2022/02/10 20:00:15;;;;;;;3.00;1.60;;;10.70;99.90;;;;;;5081140;28;20527;-38
2022/02/10 20:02:41;;;;;;;2.60;1.73;;;10.40;99.90;;;;;;5086278;28;20918;-39
2022/02/10 20:05:07;;;;;;;3.43;1.77;;;10.00;99.90;;;;;;5087499;28;20538;-40
2022/02/10 20:07:37;;;;;;;1.70;1.60;;;10.10;99.90;;;;;;5085849;28;20259;-40
2022/02/10 20:10:05;;;;;;;1.93;1.73;;;9.90;99.90;;;;;;5085817;28;20430;-39
2022/02/10 20:12:31;;;;;;;2.10;1.80;;;9.70;99.90;;;;;;5087390;28;20422;-43
2022/02/10 20:14:57;;;;;;;2.07;1.77;;;9.90;99.90;;;;;;5082762;28;20470;-42
2022/02/10 20:17:23;;;;;;;2.90;1.70;;;9.80;99.90;;;;;;5082794;28;20518;-39
2022/02/10 20:19:48;;;;;;;3.33;2.13;;;9.70;99.90;;;;;;5086792;28;20517;-40
2022/02/10 20:22:14;;;;;;;2.20;1.80;;;9.50;99.90;;;;;;5084826;28;20188;-39
2022/02/10 20:24:41;;;;;;;2.80;2.10;;;9.30;99.90;;;;;;5086918;28;20280;-39
2022/02/10 20:27:06;;;;;;;2.03;1.80;;;9.30;99.90;;;;;;5087464;28;20430;-38
2022/02/10 20:29:33;;;;;;;2.73;2.20;;;9.10;99.90;;;;;;5083394;28;20432;-42
2022/02/10 20:31:59;;;;;;;2.33;2.13;;;9.00;99.90;;;;;;5077829;28;20238;-44
2022/02/10 20:34:26;;;;;;;3.20;2.53;;;9.00;99.90;;;;;;5086981;28;20431;-39
2022/02/10 20:36:52;;;;;;;3.40;3.10;;;8.80;99.90;;;;;;5086871;28;20824;-38
2022/02/10 20:39:24;;;;;;;4.07;3.63;;;8.60;99.90;;;;;;5087255;28;20422;-38
2022/02/10 20:41:53;;;;;;;4.17;3.70;;;8.60;99.90;;;;;;5085071;28;20498;-39
2022/02/10 20:44:20;;;;;;;4.07;3.67;;;8.30;99.90;;;;;;5087206;28;20936;-39
2022/02/10 20:46:50;;;;;;;4.90;3.27;;;8.30;99.90;;;;;;5073845;28;20435;-42
2022/02/10 20:49:17;;;;;;;3.70;2.93;;;8.30;99.90;;;;;;5081488;28;20458;-39
2022/02/10 20:51:49;;;;;;;3.57;3.17;;;8.30;99.90;;;;;;5085251;28;20446;-43
2022/02/10 20:54:15;;;;;;;4.40;2.80;;;8.30;99.90;;;;;;5087026;28;20860;-40
2022/02/10 20:56:41;;;;;;;4.50;2.40;;;7.80;99.90;;;;;;5086873;28;20461;-38
2022/02/10 20:59:19;;;;;;;3.13;2.13;;;7.70;99.90;;;;;;5086527;28;20411;-39
2022/02/10 21:01:48;;;;;;;3.57;1.87;;;7.90;99.90;;;;;;5074799;28;20781;-38
2022/02/10 21:04:14;;;;;;;2.77;1.90;;;8.00;99.90;;;;;;5086571;28;20418;-40
2022/02/10 21:09:12;;;;;;;3.70;1.87;;;7.90;99.90;;;;;;5086939;28;20216;-38
2022/02/10 21:11:39;;;;;;;2.80;1.93;;;7.60;99.90;;;;;;5084953;28;20558;-38
2022/02/10 21:14:15;;;;;;;2.60;2.40;;;7.70;99.90;;;;;;5085088;28;20505;-38
2022/02/10 21:16:42;;;;;;;3.50;2.40;;;7.50;99.90;;;;;;5076873;28;20219;-38
2022/02/10 21:19:10;;;;;;;6.50;3.47;;;7.40;99.90;;;;;;5086228;28;20460;-40
2022/02/10 21:21:36;;;;;;;3.90;2.80;;;7.20;99.90;;;;;;5086474;28;20475;-38
2022/02/10 21:24:08;;;;;;;2.20;2.00;;;7.00;99.90;;;;;;5085595;28;20415;-39
2022/02/10 21:26:42;;;;;;;3.90;2.30;;;7.20;99.90;;;;;;5086314;28;20184;-38
2022/02/10 21:29:08;;;;;;;4.47;2.43;;;7.00;99.90;;;;;;5065869;28;20480;-39
2022/02/10 21:31:42;;;;;;;6.80;3.43;;;6.90;99.90;;;;;;5072151;28;20432;-40
2022/02/10 21:34:14;;;;;;;4.13;3.47;;;7.20;99.90;;;;;;5085942;28;20219;-43
2022/02/10 21:39:35;;;;;;;5.17;3.20;;;7.50;99.90;;;;;;5085768;28;20986;-38
2022/02/10 21:42:52;;;;;;;3.80;2.97;;;7.20;99.90;;;;;;5082157;28;20209;-42
2022/02/10 21:53:19;;;;;;;4.40;4.00;;;6.90;99.90;;;;;;5085693;28;20436;-38
2022/02/10 22:03:37;;;;;;;5.10;2.93;;;6.70;99.90;;;;;;5083709;28;20426;-40
2022/02/10 22:06:30;;;;;;;4.27;3.37;;;6.70;99.90;;;;;;5086653;28;20442;-38
2022/02/10 22:09:15;;;;;;;3.23;2.93;;;6.70;99.90;;;;;;5088760;28;20851;-38
2022/02/10 22:19:43;;;;;;;2.63;2.43;;;6.30;99.90;;;;;;5086956;28;20461;-39
2022/02/10 22:22:12;;;;;;;3.20;2.80;;;6.30;99.90;;;;;;5087891;28;20685;-41
2022/02/10 22:24:38;;;;;;;2.63;2.33;;;6.50;99.90;;;;;;5088201;28;20449;-40
2022/02/10 22:27:05;;;;;;;6.27;3.60;;;6.20;99.90;;;;;;5089707;28;20426;-38
2022/02/10 22:29:47;;;;;;;5.00;2.20;;;6.20;99.90;;;;;;5089570;28;20823;-38
2022/02/10 22:32:24;;;;;;;3.40;2.50;;;6.20;99.90;;;;;;5079765;28;20529;-39
2022/02/10 22:34:54;;;;;;;1.80;1.70;;;6.10;99.90;;;;;;5089138;28;20500;-37
2022/02/10 22:37:21;;;;;;;2.60;2.20;;;6.50;99.90;;;;;;5089866;28;20406;-40
2022/02/10 22:39:49;;;;;;;2.43;1.80;;;6.80;99.90;;;;;;5087037;28;20414;-38
2022/02/10 22:42:15;;;;;;;2.53;1.87;;;6.70;99.90;;;;;;5071395;28;20414;-39
2022/02/10 22:44:41;;;;;;;2.57;2.03;;;6.80;99.90;;;;;;5089707;28;20426;-39
2022/02/10 22:47:09;;;;;;;3.80;2.20;;;6.70;99.90;;;;;;5067458;28;20812;-38
2022/02/10 22:49:35;;;;;;;6.30;2.00;;;6.80;99.90;;;;;;5088315;28;20473;-38
2022/02/10 22:52:02;;;;;;;3.90;1.50;;;6.80;99.90;;;;;;5089947;28;20489;-38
2022/02/10 22:54:28;;;;;;;2.20;1.87;;;6.70;99.90;;;;;;5089760;28;20438;-39
2022/02/10 22:56:54;;;;;;;2.77;1.63;;;6.60;99.90;;;;;;5090303;28;20824;-41
2022/02/10 22:59:20;;;;;;;2.73;1.50;;;6.90;99.90;;;;;;5089844;28;20196;-40
2022/02/10 23:01:46;;;;;;;3.50;1.77;;;6.80;99.90;;;;;;5082561;28;20712;-38
2022/02/10 23:04:12;;;;;;;2.17;1.87;;;6.80;99.90;;;;;;5085881;28;20549;-39
2022/02/10 23:06:38;;;;;;;3.87;2.20;;;6.50;99.90;;;;;;5089705;28;20422;-40
2022/02/10 23:09:30;;;;;;;5.03;1.87;;;6.40;99.90;;;;;;5090024;28;20606;-38
2022/02/10 23:11:55;;;;;;;2.67;2.47;;;6.10;99.90;;;;;;5088884;28;20513;-38
2022/02/10 23:14:21;;;;;;;3.70;2.20;;;6.00;99.90;;;;;;5089842;28;21003;-38
2022/02/10 23:16:47;;;;;;;3.57;2.23;;;6.00;99.90;;;;;;5082962;28;20556;-39
2022/02/10 23:19:14;;;;;;;3.73;2.30;;;6.00;99.90;;;;;;5088494;28;20188;-38
2022/02/10 23:21:40;;;;;;;5.00;2.93;;;5.80;99.90;;;;;;5089176;28;20422;-38
2022/02/10 23:24:06;;;;;;;4.80;2.47;;;6.00;99.90;;;;;;5088804;28;20423;-37
2022/02/10 23:26:32;;;;;;;5.13;2.87;;;5.70;99.90;;;;;;5089463;28;20431;-39
2022/02/10 23:28:58;;;;;;;3.43;2.87;;;5.70;99.90;;;;;;5089709;28;20822;-39
2022/02/10 23:31:26;;;;;;;3.47;3.17;;;5.50;99.90;;;;;;5083590;28;20450;-38
2022/02/10 23:33:56;;;;;;;4.20;2.83;;;5.90;99.90;;;;;;5085440;28;20806;-42
2022/02/10 23:39:32;;;;;;;3.93;3.53;;;5.70;99.90;;;;;;5065743;28;20437;-39
2022/02/10 23:46:49;;;;;;;6.30;2.73;;;5.20;99.90;;;;;;5081687;28;20450;-40
2022/02/10 23:49:19;;;;;;;3.10;2.80;;;5.40;99.90;;;;;;5085387;28;20471;-40
2022/02/10 23:51:53;;;;;;;4.10;2.87;;;5.40;99.90;;;;;;5087852;28;20237;-42
2022/02/10 23:54:19;;;;;;;4.10;3.30;;;5.60;99.90;;;;;;5087800;28;20469;-41
2022/02/10 23:56:52;;;;;;;4.33;3.53;;;5.40;99.90;;;;;;5088485;28;20505;-40
